Time;durP1;ratioP1;P1;durP2;ratioP2;P2;SDS_P1;SDS_P2;PMS_P1;PMS_P2;Temp;Humidity;BMP_temperature;BMP_pressure;BME280_temperature;BME280_humidity;BME280_pressure;Samples;Min_cycle;Max_cycle;Signal;HPM_P1;HPM_P2
2023/05/25 00:02:06;;;;;;;;;3.75;3.75;;;;;;;;4963290;28;46864;-70
2023/05/25 00:04:35;;;;;;;;;3.00;3.00;;;;;;;;4964966;28;45369;-71
2023/05/25 00:07:01;;;;;;;;;4.00;4.00;;;;;;;;4964004;28;45422;-70
2023/05/25 00:09:26;;;;;;;;;4.00;4.00;;;;;;;;4963866;28;45375;-70
2023/05/25 00:11:51;;;;;;;;;5.00;4.00;;;;;;;;4973155;28;46129;-71
2023/05/25 00:14:17;;;;;;;;;9.00;6.75;;;;;;;;4974409;28;45385;-70
2023/05/25 00:16:44;;;;;;;;;5.00;4.00;;;;;;;;4968335;28;45481;-70
2023/05/25 00:19:09;;;;;;;;;4.75;4.75;;;;;;;;4958250;28;45761;-70
2023/05/25 00:21:36;;;;;;;;;4.75;3.75;;;;;;;;4969641;28;45435;-70
2023/05/25 00:24:02;;;;;;;;;5.50;4.00;;;;;;;;4954661;28;45516;-70
2023/05/25 00:26:27;;;;;;;;;4.25;4.00;;;;;;;;4953508;28;45354;-70
2023/05/25 00:28:52;;;;;;;;;5.50;5.50;;;;;;;;4957193;28;45459;-70
2023/05/25 00:31:18;;;;;;;;;7.00;6.00;;;;;;;;4963071;28;46418;-70
2023/05/25 00:33:43;;;;;;;;;6.75;3.75;;;;;;;;4954846;28;45354;-70
2023/05/25 00:36:08;;;;;;;;;5.00;4.00;;;;;;;;4954572;28;45402;-70
2023/05/25 00:38:33;;;;;;;;;7.25;6.00;;;;;;;;4954261;28;45446;-70
2023/05/25 00:40:58;;;;;;;;;5.00;5.00;;;;;;;;4956012;28;45625;-71
2023/05/25 00:43:24;;;;;;;;;4.25;4.25;;;;;;;;4954238;28;45395;-71
2023/05/25 00:45:50;;;;;;;;;6.75;5.00;;;;;;;;4954319;28;45491;-70
2023/05/25 00:48:16;;;;;;;;;5.00;4.75;;;;;;;;4956390;28;45596;-70
2023/05/25 00:50:42;;;;;;;;;5.50;5.50;;;;;;;;4970762;28;47175;-70
2023/05/25 00:53:08;;;;;;;;;7.50;5.75;;;;;;;;4977541;28;45368;-69
2023/05/25 00:55:42;;;;;;;;;5.00;5.00;;;;;;;;4977022;28;45344;-70
2023/05/25 00:58:09;;;;;;;;;3.00;3.00;;;;;;;;4976139;28;45484;-70
2023/05/25 01:00:36;;;;;;;;;4.75;4.75;;;;;;;;4976987;28;45414;-71
2023/05/25 01:03:06;;;;;;;;;7.50;5.75;;;;;;;;4975833;28;45346;-70
2023/05/25 01:05:33;;;;;;;;;6.25;4.50;;;;;;;;4977408;28;45426;-70
2023/05/25 01:08:00;;;;;;;;;6.00;5.00;;;;;;;;4977275;28;45497;-70
2023/05/25 01:10:27;;;;;;;;;7.25;5.25;;;;;;;;4976439;28;47276;-71
2023/05/25 01:12:54;;;;;;;;;6.00;4.75;;;;;;;;4977521;28;45581;-69
2023/05/25 01:15:19;;;;;;;;;9.25;7.25;;;;;;;;4977093;28;45369;-71
2023/05/25 01:17:44;;;;;;;;;7.00;6.00;;;;;;;;4976835;28;45452;-70
2023/05/25 01:20:10;;;;;;;;;4.50;4.50;;;;;;;;4977326;28;47324;-70
2023/05/25 01:22:39;;;;;;;;;10.75;8.75;;;;;;;;4976823;28;45557;-70
2023/05/25 01:25:20;;;;;;;;;8.75;7.75;;;;;;;;4976876;28;45417;-70
2023/05/25 01:27:47;;;;;;;;;7.25;6.50;;;;;;;;4967003;28;45439;-70
2023/05/25 01:30:14;;;;;;;;;9.00;8.00;;;;;;;;4956975;28;46231;-70
2023/05/25 01:32:41;;;;;;;;;8.75;7.00;;;;;;;;4957215;28;45444;-70
2023/05/25 01:35:06;;;;;;;;;7.75;7.75;;;;;;;;4957256;28;45287;-70
2023/05/25 01:37:36;;;;;;;;;10.25;8.75;;;;;;;;4957183;28;45348;-70
2023/05/25 01:40:01;;;;;;;;;8.75;7.75;;;;;;;;4956525;28;45559;-70
2023/05/25 01:42:26;;;;;;;;;9.00;8.00;;;;;;;;4956854;28;45558;-70
2023/05/25 01:44:52;;;;;;;;;7.00;7.00;;;;;;;;4957190;28;45650;-70
2023/05/25 01:47:17;;;;;;;;;7.50;7.50;;;;;;;;4955617;28;45446;-70
2023/05/25 01:49:49;;;;;;;;;7.75;6.25;;;;;;;;4965230;28;46630;-70
2023/05/25 01:52:20;;;;;;;;;6.50;6.50;;;;;;;;4996064;28;45443;-70
2023/05/25 01:54:50;;;;;;;;;5.50;5.25;;;;;;;;4995773;28;45403;-70
2023/05/25 01:57:17;;;;;;;;;10.75;7.00;;;;;;;;4991719;28;45591;-70
2023/05/25 01:59:42;;;;;;;;;8.75;8.50;;;;;;;;4974765;28;46397;-70
2023/05/25 02:02:08;;;;;;;;;10.00;9.00;;;;;;;;4976241;28;45560;-70
2023/05/25 02:04:34;;;;;;;;;12.00;8.50;;;;;;;;4976096;28;45836;-70
2023/05/25 02:06:59;;;;;;;;;11.00;9.50;;;;;;;;4975985;28;45469;-70
2023/05/25 02:09:25;;;;;;;;;8.00;7.75;;;;;;;;4975664;28;45494;-70
2023/05/25 02:11:50;;;;;;;;;7.75;6.75;;;;;;;;4975984;28;45492;-70
2023/05/25 02:14:15;;;;;;;;;7.50;7.25;;;;;;;;4976182;28;45305;-70
2023/05/25 02:16:41;;;;;;;;;9.25;7.00;;;;;;;;4976168;28;45539;-70
2023/05/25 02:19:06;;;;;;;;;8.00;7.25;;;;;;;;4976100;28;46016;-70
2023/05/25 02:21:31;;;;;;;;;11.00;7.50;;;;;;;;4975684;28;45436;-70
2023/05/25 02:23:57;;;;;;;;;6.25;5.50;;;;;;;;4975449;28;45617;-71
2023/05/25 02:26:22;;;;;;;;;11.50;9.25;;;;;;;;4975893;28;45479;-70
2023/05/25 02:28:47;;;;;;;;;11.75;7.75;;;;;;;;4976084;28;45485;-70
2023/05/25 02:31:12;;;;;;;;;7.75;6.75;;;;;;;;4975725;28;45596;-70
2023/05/25 02:33:37;;;;;;;;;9.00;7.50;;;;;;;;4974128;28;45472;-70
2023/05/25 02:36:04;;;;;;;;;10.00;9.00;;;;;;;;4975696;28;45604;-70
2023/05/25 02:38:29;;;;;;;;;15.50;10.00;;;;;;;;4959879;28;45539;-71
2023/05/25 02:40:54;;;;;;;;;7.75;7.00;;;;;;;;4974621;28;45397;-70
2023/05/25 02:43:20;;;;;;;;;7.25;7.25;;;;;;;;4975897;28;45366;-71
2023/05/25 02:45:45;;;;;;;;;6.50;6.50;;;;;;;;4960200;28;45413;-70
2023/05/25 02:48:10;;;;;;;;;7.50;6.25;;;;;;;;4955982;28;46031;-70
2023/05/25 02:50:35;;;;;;;;;11.00;8.50;;;;;;;;4979178;28;45432;-70
2023/05/25 02:53:01;;;;;;;;;7.00;7.00;;;;;;;;4995396;28;45539;-70
2023/05/25 02:55:26;;;;;;;;;7.00;7.00;;;;;;;;4994304;28;45633;-70
2023/05/25 02:57:51;;;;;;;;;7.25;5.25;;;;;;;;4971534;28;45474;-71
2023/05/25 03:00:16;;;;;;;;;10.75;9.00;;;;;;;;4975176;28;45369;-71
2023/05/25 03:02:45;;;;;;;;;7.50;7.00;;;;;;;;4975465;28;45457;-71
2023/05/25 03:05:10;;;;;;;;;9.25;9.25;;;;;;;;4973775;28;45456;-70
2023/05/25 03:07:35;;;;;;;;;8.75;8.00;;;;;;;;4974663;28;46984;-70
2023/05/25 03:10:01;;;;;;;;;8.25;8.25;;;;;;;;4974531;28;45464;-70
2023/05/25 03:12:26;;;;;;;;;9.75;8.50;;;;;;;;4974845;28;45531;-70
2023/05/25 03:14:51;;;;;;;;;5.50;5.50;;;;;;;;4972445;28;45318;-70
2023/05/25 03:17:16;;;;;;;;;12.25;8.00;;;;;;;;4955533;28;45407;-70
2023/05/25 03:19:42;;;;;;;;;10.00;9.00;;;;;;;;4955591;28;45483;-70
2023/05/25 03:22:08;;;;;;;;;9.75;8.75;;;;;;;;4955658;28;45300;-70
2023/05/25 03:24:33;;;;;;;;;10.25;10.25;;;;;;;;4955181;28;45731;-71
2023/05/25 03:26:58;;;;;;;;;9.50;7.00;;;;;;;;4954247;28;46061;-70
2023/05/25 03:29:23;;;;;;;;;9.50;9.50;;;;;;;;4955764;28;45518;-70
2023/05/25 03:31:48;;;;;;;;;9.75;7.75;;;;;;;;4955240;28;45302;-70
2023/05/25 03:34:14;;;;;;;;;11.75;9.75;;;;;;;;4955269;28;45347;-71
2023/05/25 03:36:39;;;;;;;;;10.50;7.50;;;;;;;;4955185;28;46198;-69
2023/05/25 03:39:04;;;;;;;;;9.00;9.00;;;;;;;;4955083;28;45593;-70
2023/05/25 03:41:30;;;;;;;;;9.75;6.50;;;;;;;;4955395;28;45379;-71
2023/05/25 03:43:55;;;;;;;;;11.50;9.00;;;;;;;;4955512;28;45511;-71
2023/05/25 03:46:20;;;;;;;;;10.00;8.00;;;;;;;;4955018;28;45488;-71
2023/05/25 03:48:45;;;;;;;;;8.50;7.00;;;;;;;;4962675;28;45390;-71
2023/05/25 03:51:10;;;;;;;;;10.00;9.00;;;;;;;;4974719;28;45369;-71
2023/05/25 03:53:36;;;;;;;;;7.75;7.25;;;;;;;;4975108;28;45457;-70
2023/05/25 03:56:01;;;;;;;;;7.50;6.25;;;;;;;;4973581;28;45499;-70
2023/05/25 03:58:26;;;;;;;;;9.00;8.75;;;;;;;;4974839;28;45491;-71
2023/05/25 04:00:51;;;;;;;;;7.75;7.75;;;;;;;;4974346;28;45401;-71
2023/05/25 04:03:17;;;;;;;;;9.25;8.00;;;;;;;;4974210;28;45409;-70
2023/05/25 04:05:47;;;;;;;;;7.50;7.50;;;;;;;;4974247;28;45453;-70
2023/05/25 04:08:16;;;;;;;;;5.75;5.75;;;;;;;;4974611;28;45432;-70
2023/05/25 04:10:42;;;;;;;;;10.25;9.00;;;;;;;;4975258;28;45452;-70
2023/05/25 04:13:07;;;;;;;;;6.25;6.25;;;;;;;;4974955;28;45342;-72
2023/05/25 04:15:33;;;;;;;;;9.50;9.50;;;;;;;;4974191;28;46140;-70
2023/05/25 04:17:58;;;;;;;;;7.00;7.00;;;;;;;;4973697;28;45377;-71
2023/05/25 04:20:24;;;;;;;;;7.00;7.00;;;;;;;;4974325;28;45361;-71
2023/05/25 04:22:49;;;;;;;;;9.00;7.00;;;;;;;;4975671;28;45548;-70
2023/05/25 04:25:15;;;;;;;;;8.00;6.75;;;;;;;;4977835;28;47147;-71
2023/05/25 04:27:41;;;;;;;;;7.00;7.00;;;;;;;;4978144;28;45335;-71
2023/05/25 04:30:07;;;;;;;;;9.25;8.00;;;;;;;;4977884;28;45290;-70
2023/05/25 04:32:36;;;;;;;;;6.75;6.50;;;;;;;;4978533;28;45305;-70
2023/05/25 04:35:02;;;;;;;;;5.25;5.00;;;;;;;;4976931;28;47124;-71
2023/05/25 04:37:27;;;;;;;;;8.25;6.75;;;;;;;;4977920;28;45565;-71
2023/05/25 04:39:53;;;;;;;;;8.75;8.75;;;;;;;;4977916;28;45535;-71
2023/05/25 04:42:18;;;;;;;;;12.50;7.25;;;;;;;;4977845;28;45423;-71
2023/05/25 04:44:43;;;;;;;;;9.50;7.25;;;;;;;;4977469;28;45367;-71
2023/05/25 04:47:09;;;;;;;;;8.00;7.00;;;;;;;;4977852;28;45282;-70
2023/05/25 04:49:34;;;;;;;;;8.00;7.00;;;;;;;;4980907;28;45476;-71
2023/05/25 04:52:00;;;;;;;;;7.00;6.25;;;;;;;;4997176;28;45369;-70
2023/05/25 04:54:25;;;;;;;;;5.75;5.00;;;;;;;;4996967;28;45574;-71
2023/05/25 04:56:50;;;;;;;;;10.00;10.00;;;;;;;;4996032;28;45528;-70
2023/05/25 04:59:15;;;;;;;;;9.50;8.00;;;;;;;;4977504;28;45706;-70
2023/05/25 05:01:43;;;;;;;;;10.50;9.25;;;;;;;;4962097;28;45538;-70
2023/05/25 05:04:09;;;;;;;;;9.50;9.25;;;;;;;;4956151;28;47085;-70
2023/05/25 05:06:35;;;;;;;;;11.75;8.50;;;;;;;;4958062;28;45682;-70
2023/05/25 05:09:00;;;;;;;;;10.25;8.50;;;;;;;;4958336;28;45372;-70
2023/05/25 05:11:27;;;;;;;;;10.00;8.50;;;;;;;;4958365;28;45533;-70
2023/05/25 05:13:53;;;;;;;;;7.50;7.50;;;;;;;;4957722;28;45472;-69
2023/05/25 05:16:18;;;;;;;;;10.00;9.00;;;;;;;;4958066;28;45469;-70
2023/05/25 05:18:43;;;;;;;;;11.25;9.25;;;;;;;;4975171;28;45427;-67
2023/05/25 05:21:09;;;;;;;;;8.75;7.50;;;;;;;;4977000;28;45428;-67
2023/05/25 05:23:34;;;;;;;;;8.50;8.25;;;;;;;;4977234;28;46447;-67
2023/05/25 05:25:59;;;;;;;;;9.25;8.50;;;;;;;;4977668;28;45337;-67
2023/05/25 05:28:26;;;;;;;;;11.00;7.75;;;;;;;;4977388;28;45476;-68
2023/05/25 05:30:51;;;;;;;;;10.50;8.00;;;;;;;;4976764;28;45345;-70
2023/05/25 05:33:16;;;;;;;;;8.75;8.50;;;;;;;;4976048;28;45537;-70
2023/05/25 05:35:42;;;;;;;;;11.25;9.25;;;;;;;;4976773;28;45310;-69
2023/05/25 05:38:08;;;;;;;;;11.00;10.00;;;;;;;;4958108;28;45323;-68
2023/05/25 05:40:33;;;;;;;;;10.75;9.75;;;;;;;;4957184;28;45553;-68
2023/05/25 05:42:58;;;;;;;;;10.50;10.25;;;;;;;;4967453;28;46357;-69
2023/05/25 05:45:23;;;;;;;;;17.25;10.75;;;;;;;;4957834;28;45493;-67
2023/05/25 05:47:49;;;;;;;;;7.75;7.75;;;;;;;;4958158;28;45353;-69
2023/05/25 05:50:14;;;;;;;;;14.00;9.50;;;;;;;;4975013;28;45487;-70
2023/05/25 05:52:39;;;;;;;;;10.00;9.25;;;;;;;;4997061;28;46314;-67
2023/05/25 05:55:05;;;;;;;;;8.50;7.00;;;;;;;;4997054;28;45630;-68
2023/05/25 05:57:30;;;;;;;;;10.00;9.75;;;;;;;;4964280;28;45651;-71
2023/05/25 05:59:55;;;;;;;;;8.50;7.75;;;;;;;;4976568;28;45558;-71
2023/05/25 06:02:20;;;;;;;;;9.75;7.50;;;;;;;;4976812;28;45424;-71
2023/05/25 06:04:46;;;;;;;;;14.00;13.50;;;;;;;;4977022;28;45771;-72
2023/05/25 06:07:11;;;;;;;;;7.00;7.00;;;;;;;;4976897;28;45388;-72
2023/05/25 06:09:36;;;;;;;;;9.25;8.50;;;;;;;;4959673;28;45589;-70
2023/05/25 06:12:02;;;;;;;;;11.25;7.75;;;;;;;;4976964;28;45456;-72
2023/05/25 06:14:27;;;;;;;;;12.00;11.50;;;;;;;;4976942;28;45444;-70
2023/05/25 06:16:52;;;;;;;;;13.50;10.25;;;;;;;;4977061;28;45343;-70
2023/05/25 06:19:17;;;;;;;;;17.50;13.50;;;;;;;;4977130;28;45421;-71
2023/05/25 06:21:43;;;;;;;;;19.50;10.25;;;;;;;;4976629;28;46064;-71
2023/05/25 06:24:08;;;;;;;;;12.75;9.50;;;;;;;;4976482;28;45483;-71
2023/05/25 06:26:33;;;;;;;;;17.00;12.50;;;;;;;;4975570;28;45434;-71
2023/05/25 06:28:59;;;;;;;;;12.25;10.00;;;;;;;;4975645;28;45429;-70
2023/05/25 06:31:24;;;;;;;;;8.75;8.75;;;;;;;;4976557;28;46406;-70
2023/05/25 06:33:49;;;;;;;;;11.25;9.25;;;;;;;;4976840;28;45540;-70
2023/05/25 06:36:14;;;;;;;;;15.75;12.00;;;;;;;;4976644;28;45888;-70
2023/05/25 06:38:40;;;;;;;;;12.25;10.50;;;;;;;;4976811;28;45453;-70
2023/05/25 06:41:06;;;;;;;;;10.75;10.00;;;;;;;;4976561;28;46426;-70
2023/05/25 06:43:31;;;;;;;;;11.25;9.75;;;;;;;;4969352;28;46383;-71
2023/05/25 06:45:57;;;;;;;;;12.25;10.50;;;;;;;;4956395;28;45469;-70
2023/05/25 06:48:22;;;;;;;;;8.50;7.00;;;;;;;;4956905;28;45384;-72
2023/05/25 06:50:47;;;;;;;;;10.50;9.25;;;;;;;;4982783;28;45581;-70
2023/05/25 06:53:12;;;;;;;;;13.50;9.00;;;;;;;;4996213;28;45354;-71
2023/05/25 06:55:38;;;;;;;;;7.00;5.25;;;;;;;;4996250;28;45428;-71
2023/05/25 06:58:03;;;;;;;;;8.00;8.00;;;;;;;;4984845;28;45358;-71
2023/05/25 07:00:28;;;;;;;;;8.00;8.00;;;;;;;;4976073;28;46139;-71
2023/05/25 07:02:53;;;;;;;;;12.50;9.00;;;;;;;;4976169;28;45459;-70
2023/05/25 07:05:19;;;;;;;;;14.25;10.25;;;;;;;;4976316;28;45368;-72
2023/05/25 07:07:44;;;;;;;;;6.25;6.25;;;;;;;;4976270;28;45377;-70
2023/05/25 07:10:09;;;;;;;;;10.50;8.00;;;;;;;;4975998;28;47359;-71
2023/05/25 07:12:34;;;;;;;;;7.75;6.50;;;;;;;;4975785;28;45508;-70
2023/05/25 07:15:00;;;;;;;;;10.00;8.50;;;;;;;;4976150;28;45519;-70
2023/05/25 07:17:25;;;;;;;;;11.00;8.00;;;;;;;;4975964;28;45364;-70
2023/05/25 07:19:50;;;;;;;;;9.25;9.25;;;;;;;;4975705;28;45967;-70
2023/05/25 07:22:17;;;;;;;;;7.25;7.25;;;;;;;;4974695;28;45417;-71
2023/05/25 07:24:43;;;;;;;;;7.75;7.75;;;;;;;;4975927;28;45358;-70
2023/05/25 07:27:08;;;;;;;;;7.25;7.25;;;;;;;;4974268;28;45612;-72
2023/05/25 07:29:33;;;;;;;;;9.25;7.25;;;;;;;;4975817;28;46979;-70
2023/05/25 07:31:58;;;;;;;;;9.00;8.25;;;;;;;;4975809;28;45412;-71
2023/05/25 07:34:24;;;;;;;;;5.75;5.75;;;;;;;;4975511;28;45384;-71
2023/05/25 07:36:49;;;;;;;;;7.00;7.00;;;;;;;;4975575;28;45461;-70
2023/05/25 07:39:14;;;;;;;;;9.75;6.00;;;;;;;;4975785;28;46060;-71
2023/05/25 07:41:39;;;;;;;;;9.50;8.25;;;;;;;;4975425;28;45413;-71
2023/05/25 07:44:05;;;;;;;;;11.25;7.00;;;;;;;;4975903;28;45389;-71
2023/05/25 07:46:30;;;;;;;;;5.75;5.75;;;;;;;;4973991;28;45621;-71
2023/05/25 07:48:57;;;;;;;;;7.00;5.00;;;;;;;;4975224;28;46137;-70
2023/05/25 07:51:24;;;;;;;;;5.00;5.00;;;;;;;;4975621;28;45295;-70
2023/05/25 07:53:51;;;;;;;;;8.00;7.00;;;;;;;;4974505;28;45409;-71
2023/05/25 07:56:16;;;;;;;;;7.00;6.00;;;;;;;;4975682;28;45544;-71
2023/05/25 07:58:41;;;;;;;;;8.50;6.25;;;;;;;;4975305;28;45625;-71
2023/05/25 08:01:06;;;;;;;;;4.25;4.25;;;;;;;;4975557;28;45519;-70
2023/05/25 08:03:31;;;;;;;;;6.00;6.00;;;;;;;;4968917;28;45497;-70
2023/05/25 08:05:57;;;;;;;;;12.00;9.75;;;;;;;;4956200;28;45358;-71
2023/05/25 08:08:23;;;;;;;;;12.50;9.50;;;;;;;;4938415;28;47899;-71
2023/05/25 08:10:48;;;;;;;;;5.00;5.00;;;;;;;;4955664;28;45396;-70
2023/05/25 08:13:13;;;;;;;;;7.50;7.50;;;;;;;;4966936;28;45346;-71
2023/05/25 08:15:39;;;;;;;;;5.00;5.00;;;;;;;;4975295;28;45412;-70
2023/05/25 08:18:05;;;;;;;;;4.00;4.00;;;;;;;;4974950;28;46225;-71
2023/05/25 08:20:31;;;;;;;;;5.50;5.00;;;;;;;;4975409;28;45438;-70
2023/05/25 08:22:56;;;;;;;;;3.00;3.00;;;;;;;;4975176;28;45469;-71
2023/05/25 08:25:21;;;;;;;;;6.50;5.00;;;;;;;;4961558;28;45379;-71
2023/05/25 08:27:47;;;;;;;;;3.00;3.00;;;;;;;;4955680;28;45707;-70
2023/05/25 08:30:12;;;;;;;;;6.25;3.00;;;;;;;;4955516;28;45425;-71
2023/05/25 08:32:37;;;;;;;;;7.50;5.00;;;;;;;;4955868;28;45497;-70
2023/05/25 08:35:03;;;;;;;;;5.50;4.50;;;;;;;;4955521;28;45369;-70
2023/05/25 08:37:29;;;;;;;;;4.00;4.00;;;;;;;;4955194;28;46835;-70
2023/05/25 08:39:54;;;;;;;;;5.00;4.00;;;;;;;;4955767;28;45747;-70
2023/05/25 08:42:19;;;;;;;;;7.50;3.25;;;;;;;;4955697;28;45790;-70
2023/05/25 08:44:45;;;;;;;;;4.50;3.00;;;;;;;;4955677;28;45450;-70
2023/05/25 08:47:11;;;;;;;;;4.00;3.00;;;;;;;;4955169;28;45493;-71
2023/05/25 08:49:37;;;;;;;;;7.00;3.75;;;;;;;;4962409;28;45493;-71
2023/05/25 08:52:02;;;;;;;;;2.50;2.50;;;;;;;;4994826;28;45408;-71
2023/05/25 08:54:29;;;;;;;;;4.00;4.00;;;;;;;;4985956;28;45406;-71
2023/05/25 08:57:00;;;;;;;;;4.00;3.00;;;;;;;;4973354;28;46300;-70
2023/05/25 08:59:44;;;;;;;;;3.75;3.75;;;;;;;;4955325;28;45499;-71
2023/05/25 09:02:33;;;;;;;;;3.75;3.75;;;;;;;;4956014;28;45445;-71
2023/05/25 09:05:00;;;;;;;;;4.00;2.25;;;;;;;;4955416;28;45407;-71
2023/05/25 09:07:26;;;;;;;;;4.00;4.00;;;;;;;;4953970;28;47623;-71
2023/05/25 09:09:51;;;;;;;;;3.25;3.00;;;;;;;;4958072;28;45476;-70
2023/05/25 09:12:17;;;;;;;;;2.50;2.25;;;;;;;;4958272;28;45366;-71
2023/05/25 09:14:46;;;;;;;;;7.25;4.25;;;;;;;;4958743;28;45327;-72
2023/05/25 09:17:12;;;;;;;;;2.75;2.25;;;;;;;;4958394;28;45482;-71
2023/05/25 09:19:38;;;;;;;;;2.75;2.75;;;;;;;;4958489;28;45403;-71
2023/05/25 09:22:03;;;;;;;;;1.00;1.00;;;;;;;;4958523;28;45345;-71
2023/05/25 09:24:29;;;;;;;;;4.25;3.00;;;;;;;;4957847;28;45455;-71
2023/05/25 09:26:55;;;;;;;;;2.50;2.50;;;;;;;;4957014;28;45454;-71
2023/05/25 09:29:20;;;;;;;;;4.25;2.75;;;;;;;;4958334;28;45311;-70
2023/05/25 09:31:45;;;;;;;;;2.25;2.25;;;;;;;;4958382;28;45404;-71
2023/05/25 09:34:14;;;;;;;;;2.00;2.00;;;;;;;;4956982;28;45398;-70
2023/05/25 09:36:40;;;;;;;;;3.00;2.00;;;;;;;;4958023;28;46368;-70
2023/05/25 09:39:11;;;;;;;;;3.00;3.00;;;;;;;;4957857;28;45470;-71
2023/05/25 09:41:39;;;;;;;;;3.75;2.00;;;;;;;;4957933;28;45313;-71
2023/05/25 09:44:05;;;;;;;;;2.00;2.00;;;;;;;;4958072;28;45521;-71
2023/05/25 09:46:35;;;;;;;;;3.50;3.25;;;;;;;;4957814;28;45492;-71
2023/05/25 09:49:00;;;;;;;;;3.00;3.00;;;;;;;;4956508;28;45918;-70
2023/05/25 09:51:25;;;;;;;;;4.75;2.50;;;;;;;;4993679;28;45284;-71
2023/05/25 09:53:51;;;;;;;;;2.75;2.75;;;;;;;;4997318;28;45340;-70
2023/05/25 09:56:16;;;;;;;;;2.75;2.50;;;;;;;;4995475;28;46333;-71
2023/05/25 09:58:41;;;;;;;;;2.50;2.00;;;;;;;;4980476;28;45393;-71
2023/05/25 10:01:07;;;;;;;;;3.00;2.00;;;;;;;;4977461;28;45412;-71
2023/05/25 10:03:32;;;;;;;;;2.25;2.00;;;;;;;;4977340;28;45499;-72
2023/05/25 10:05:58;;;;;;;;;2.50;2.00;;;;;;;;4977007;28;47280;-70
2023/05/25 10:08:24;;;;;;;;;2.75;2.00;;;;;;;;4977063;28;45747;-72
2023/05/25 10:10:50;;;;;;;;;2.25;2.25;;;;;;;;4977296;28;45314;-71
2023/05/25 10:13:18;;;;;;;;;1.75;1.75;;;;;;;;4977229;28;45531;-72
2023/05/25 10:15:44;;;;;;;;;2.00;2.00;;;;;;;;4967746;28;46520;-72
2023/05/25 10:18:12;;;;;;;;;2.50;1.50;;;;;;;;4957614;28;45417;-70
2023/05/25 10:20:37;;;;;;;;;2.00;2.00;;;;;;;;4956239;28;45656;-70
2023/05/25 10:23:05;;;;;;;;;0.25;0.25;;;;;;;;4955548;28;45418;-70
2023/05/25 10:25:38;;;;;;;;;0.00;0.00;;;;;;;;4957224;28;45474;-71
2023/05/25 10:28:11;;;;;;;;;2.00;1.00;;;;;;;;4957210;28;45315;-70
2023/05/25 10:30:37;;;;;;;;;2.00;2.00;;;;;;;;4957346;28;45456;-72
2023/05/25 10:33:03;;;;;;;;;1.50;1.50;;;;;;;;4957432;28;45486;-71
2023/05/25 10:35:29;;;;;;;;;2.00;1.25;;;;;;;;4956864;28;45472;-72
2023/05/25 10:37:55;;;;;;;;;3.00;2.00;;;;;;;;4960487;28;45386;-72
2023/05/25 10:40:21;;;;;;;;;2.00;2.00;;;;;;;;4966619;28;45484;-71
2023/05/25 10:42:47;;;;;;;;;2.50;2.00;;;;;;;;4964428;28;45529;-72
2023/05/25 10:45:12;;;;;;;;;3.00;2.00;;;;;;;;4965320;28;45396;-71
2023/05/25 10:47:40;;;;;;;;;3.00;3.00;;;;;;;;4966832;28;45770;-72
2023/05/25 10:50:16;;;;;;;;;2.50;2.00;;;;;;;;4977669;28;45388;-71
2023/05/25 10:52:41;;;;;;;;;3.50;2.50;;;;;;;;4977518;28;45403;-70
2023/05/25 10:55:08;;;;;;;;;3.00;3.00;;;;;;;;4956599;28;45493;-69
2023/05/25 10:57:33;;;;;;;;;3.50;2.25;;;;;;;;4963788;28;45487;-70
2023/05/25 11:00:07;;;;;;;;;3.00;2.75;;;;;;;;4975014;28;45454;-70
2023/05/25 11:02:50;;;;;;;;;2.00;2.00;;;;;;;;4976469;28;45303;-71
2023/05/25 11:05:30;;;;;;;;;2.50;2.00;;;;;;;;4975583;28;46629;-69
2023/05/25 11:07:56;;;;;;;;;2.75;2.75;;;;;;;;4976153;28;45429;-69
2023/05/25 11:10:40;;;;;;;;;3.50;2.25;;;;;;;;4976314;28;45428;-70
2023/05/25 11:13:20;;;;;;;;;2.25;2.25;;;;;;;;4976136;28;45344;-70
2023/05/25 11:15:46;;;;;;;;;1.50;1.50;;;;;;;;4975334;28;47078;-71
2023/05/25 11:18:15;;;;;;;;;1.25;1.25;;;;;;;;4963362;28;45764;-71
2023/05/25 11:20:40;;;;;;;;;1.00;1.00;;;;;;;;4955344;28;45514;-69
2023/05/25 11:23:21;;;;;;;;;3.00;3.00;;;;;;;;4956165;28;45452;-71
2023/05/25 11:25:46;;;;;;;;;4.50;4.25;;;;;;;;4954761;28;48420;-71
2023/05/25 11:28:12;;;;;;;;;5.00;5.00;;;;;;;;4963905;28;45364;-72
2023/05/25 11:30:39;;;;;;;;;3.25;3.25;;;;;;;;4965066;28;45496;-70
2023/05/25 11:33:06;;;;;;;;;3.25;2.00;;;;;;;;4964199;28;45635;-70
2023/05/25 11:35:32;;;;;;;;;3.00;2.25;;;;;;;;4967219;28;45419;-71
2023/05/25 11:37:59;;;;;;;;;3.00;2.00;;;;;;;;4962725;28;45510;-70
2023/05/25 11:40:28;;;;;;;;;2.75;2.75;;;;;;;;4956260;28;45435;-70
2023/05/25 11:42:54;;;;;;;;;4.25;3.75;;;;;;;;4959094;28;45290;-71
2023/05/25 11:45:21;;;;;;;;;4.00;4.00;;;;;;;;4960315;28;45496;-72
2023/05/25 11:47:47;;;;;;;;;3.00;3.00;;;;;;;;4960382;28;45506;-72
2023/05/25 11:50:16;;;;;;;;;4.00;4.00;;;;;;;;4956429;28;45433;-73
2023/05/25 11:52:41;;;;;;;;;2.50;2.50;;;;;;;;4975856;28;45511;-72
2023/05/25 11:55:13;;;;;;;;;3.25;2.00;;;;;;;;4960537;28;45523;-72
2023/05/25 11:57:39;;;;;;;;;4.25;3.75;;;;;;;;4957237;28;45511;-72
2023/05/25 12:00:05;;;;;;;;;7.50;5.50;;;;;;;;4971734;28;45425;-71
2023/05/25 12:02:36;;;;;;;;;2.75;2.75;;;;;;;;4962275;28;45388;-72
2023/05/25 12:05:02;;;;;;;;;1.75;1.75;;;;;;;;4974369;28;45491;-72
2023/05/25 12:07:27;;;;;;;;;3.75;3.00;;;;;;;;4959612;28;45425;-72
2023/05/25 12:10:09;;;;;;;;;3.25;3.25;;;;;;;;4971363;28;45429;-72
2023/05/25 12:12:39;;;;;;;;;2.00;2.00;;;;;;;;4962869;28;45561;-73
2023/05/25 12:15:04;;;;;;;;;4.25;2.50;;;;;;;;4973297;28;46335;-72
2023/05/25 12:17:29;;;;;;;;;2.25;2.25;;;;;;;;4956109;28;45466;-72
2023/05/25 12:19:55;;;;;;;;;3.00;2.50;;;;;;;;4975408;28;45492;-70
2023/05/25 12:22:20;;;;;;;;;3.00;3.00;;;;;;;;4975126;28;45406;-72
2023/05/25 12:24:47;;;;;;;;;2.25;2.25;;;;;;;;4974784;28;47139;-71
2023/05/25 12:27:16;;;;;;;;;3.00;3.00;;;;;;;;4975105;28;45491;-71
2023/05/25 12:29:46;;;;;;;;;3.00;3.00;;;;;;;;4975193;28;45328;-71
2023/05/25 12:32:11;;;;;;;;;3.50;3.25;;;;;;;;4974833;28;45359;-70
2023/05/25 12:34:36;;;;;;;;;2.00;2.00;;;;;;;;4974985;28;45368;-70
2023/05/25 12:37:01;;;;;;;;;2.50;2.00;;;;;;;;4974995;28;45527;-70
2023/05/25 12:39:30;;;;;;;;;4.25;2.00;;;;;;;;4975148;28;45443;-69
2023/05/25 12:41:56;;;;;;;;;2.00;2.00;;;;;;;;4975066;28;45471;-70
2023/05/25 12:44:22;;;;;;;;;1.25;1.25;;;;;;;;4977108;28;46528;-70
2023/05/25 12:46:48;;;;;;;;;4.00;2.75;;;;;;;;4977913;28;45423;-69
2023/05/25 12:49:23;;;;;;;;;1.50;1.50;;;;;;;;4978032;28;45707;-70
2023/05/25 12:51:48;;;;;;;;;3.00;3.00;;;;;;;;4998021;28;45380;-69
2023/05/25 12:54:13;;;;;;;;;2.00;2.00;;;;;;;;4997243;28;45508;-70
2023/05/25 12:56:55;;;;;;;;;2.50;2.50;;;;;;;;4998060;28;45375;-70
2023/05/25 12:59:20;;;;;;;;;2.25;2.25;;;;;;;;4958788;28;45430;-71
2023/05/25 13:01:46;;;;;;;;;1.25;1.25;;;;;;;;4958459;28;45433;-70
2023/05/25 13:04:11;;;;;;;;;1.00;1.00;;;;;;;;4958814;28;45580;-70
2023/05/25 13:06:36;;;;;;;;;2.50;2.00;;;;;;;;4958495;28;45378;-70
2023/05/25 13:09:01;;;;;;;;;3.75;2.25;;;;;;;;4959074;28;45338;-70
2023/05/25 13:11:26;;;;;;;;;2.25;1.50;;;;;;;;4958591;28;45497;-70
2023/05/25 13:13:52;;;;;;;;;3.00;3.00;;;;;;;;4958391;28;45659;-70
2023/05/25 13:16:17;;;;;;;;;4.00;2.25;;;;;;;;4958198;28;45348;-71
2023/05/25 13:18:42;;;;;;;;;3.75;3.75;;;;;;;;4957280;28;45417;-69
2023/05/25 13:21:08;;;;;;;;;2.00;2.00;;;;;;;;4958463;28;45489;-71
2023/05/25 13:23:34;;;;;;;;;4.00;4.00;;;;;;;;4958153;28;46122;-70
2023/05/25 13:25:59;;;;;;;;;5.00;2.50;;;;;;;;4958101;28;45350;-70
2023/05/25 13:28:24;;;;;;;;;6.00;4.50;;;;;;;;4958258;28;45414;-71
2023/05/25 13:30:49;;;;;;;;;3.00;3.00;;;;;;;;4956815;28;45362;-70
2023/05/25 13:33:14;;;;;;;;;7.00;3.75;;;;;;;;4958450;28;46285;-70
2023/05/25 13:36:06;;;;;;;;;5.25;3.00;;;;;;;;4958047;28;45506;-70
2023/05/25 13:38:32;;;;;;;;;2.75;2.75;;;;;;;;4958364;28;45425;-70
2023/05/25 13:40:57;;;;;;;;;4.25;4.00;;;;;;;;4956875;28;45517;-71
2023/05/25 13:43:22;;;;;;;;;5.00;4.50;;;;;;;;4957973;28;46298;-70
2023/05/25 13:45:47;;;;;;;;;5.50;4.50;;;;;;;;4956808;28;45432;-70
2023/05/25 13:48:13;;;;;;;;;3.75;3.75;;;;;;;;4958308;28;45269;-70
2023/05/25 13:50:38;;;;;;;;;2.25;2.25;;;;;;;;4969710;28;45513;-70
2023/05/25 13:53:03;;;;;;;;;7.50;7.00;;;;;;;;4976122;28;47374;-70
2023/05/25 13:55:28;;;;;;;;;6.00;4.50;;;;;;;;4976881;28;45635;-71
2023/05/25 13:57:53;;;;;;;;;4.25;4.25;;;;;;;;4977105;28;45447;-70
2023/05/25 14:00:19;;;;;;;;;5.75;4.50;;;;;;;;4977522;28;45502;-71
2023/05/25 14:02:44;;;;;;;;;3.25;2.25;;;;;;;;4977161;28;47037;-70
2023/05/25 14:05:09;;;;;;;;;4.25;3.25;;;;;;;;4977240;28;45448;-69
2023/05/25 14:07:35;;;;;;;;;5.00;5.00;;;;;;;;4977302;28;45440;-70
2023/05/25 14:10:00;;;;;;;;;3.00;3.00;;;;;;;;4976548;28;46203;-70
2023/05/25 14:12:25;;;;;;;;;3.50;3.50;;;;;;;;4976724;28;45370;-70
2023/05/25 14:14:50;;;;;;;;;6.00;5.00;;;;;;;;4976586;28;45424;-70
2023/05/25 14:17:16;;;;;;;;;5.00;3.50;;;;;;;;4976860;28;45427;-70
2023/05/25 14:19:41;;;;;;;;;4.00;4.00;;;;;;;;4977106;28;45361;-70
2023/05/25 14:22:06;;;;;;;;;5.75;4.00;;;;;;;;4975631;28;45543;-70
2023/05/25 14:24:31;;;;;;;;;5.50;5.00;;;;;;;;4976915;28;45385;-71
2023/05/25 14:26:56;;;;;;;;;5.50;4.75;;;;;;;;4975443;28;45442;-70
2023/05/25 14:29:22;;;;;;;;;4.75;4.75;;;;;;;;4977307;28;45485;-71
2023/05/25 14:31:47;;;;;;;;;4.50;4.00;;;;;;;;4976522;28;46161;-70
2023/05/25 14:34:12;;;;;;;;;5.00;5.00;;;;;;;;4976937;28;45464;-71
2023/05/25 14:36:37;;;;;;;;;5.50;3.75;;;;;;;;4977079;28;45375;-70